createdAt,value
2018-08-04T00:01:39.320Z,9.03
2018-08-04T00:04:13.737Z,8.03
2018-08-04T00:06:45.248Z,8.53
2018-08-04T00:09:15.909Z,9.33
2018-08-04T00:11:49.193Z,8.93
2018-08-04T00:14:22.280Z,9.03
2018-08-04T00:16:53.862Z,9.33
2018-08-04T00:19:23.616Z,8.70
2018-08-04T00:21:53.320Z,8.63
2018-08-04T00:24:23.262Z,10.60
2018-08-04T00:26:53.229Z,8.83
2018-08-04T00:29:23.083Z,9.80
2018-08-04T00:31:52.305Z,9.30
2018-08-04T00:34:21.575Z,9.63
2018-08-04T00:36:50.818Z,8.47
2018-08-04T00:39:20.102Z,10.03
2018-08-04T00:41:49.933Z,10.63
2018-08-04T00:44:19.199Z,8.80
2018-08-04T00:46:48.419Z,9.53
2018-08-04T00:49:17.693Z,8.97
2018-08-04T00:51:46.957Z,8.90
2018-08-04T00:54:16.145Z,8.60
2018-08-04T00:56:45.728Z,9.47
2018-08-04T00:59:14.956Z,9.53
2018-08-04T01:01:44.240Z,9.90
2018-08-04T01:04:13.435Z,9.47
2018-08-04T01:06:42.654Z,9.17
2018-08-04T01:09:12.043Z,9.30
2018-08-04T01:11:42.302Z,9.43
2018-08-04T01:14:11.505Z,10.30
2018-08-04T01:16:40.824Z,10.70
2018-08-04T01:19:10.804Z,10.10
2018-08-04T01:21:41.733Z,11.13
2018-08-04T01:24:11.576Z,10.20
2018-08-04T01:26:41.470Z,12.80
2018-08-04T01:29:11.926Z,10.53
2018-08-04T01:31:42.487Z,13.40
2018-08-04T01:34:12.545Z,12.43
2018-08-04T01:36:42.213Z,11.17
2018-08-04T01:39:12.719Z,11.70
2018-08-04T01:41:43.987Z,10.87
2018-08-04T01:44:13.223Z,11.23
2018-08-04T01:46:42.503Z,12.93
2018-08-04T01:49:12.488Z,12.17
2018-08-04T01:51:43.090Z,11.43
2018-08-04T01:54:13.506Z,11.30
2018-08-04T01:56:45.161Z,12.50
2018-08-04T01:59:15.577Z,13.10
2018-08-04T02:01:46.403Z,12.07
2018-08-04T02:04:18.109Z,13.40
2018-08-04T02:06:48.757Z,14.10
2018-08-04T02:09:19.099Z,13.70
2018-08-04T02:11:50.390Z,12.67
2018-08-04T02:14:21.228Z,13.80
2018-08-04T02:16:52.126Z,13.87
2018-08-04T02:19:23.212Z,14.73
2018-08-04T02:21:55.837Z,14.43
2018-08-04T02:24:25.770Z,13.97
2018-08-04T02:26:56.064Z,14.10
2018-08-04T02:29:27.212Z,13.77
2018-08-04T02:31:57.938Z,13.47
2018-08-04T02:34:28.881Z,12.03
2018-08-04T02:36:59.030Z,12.40
2018-08-04T02:39:29.596Z,13.67
2018-08-04T02:42:03.888Z,13.90
2018-08-04T02:44:34.697Z,15.47
2018-08-04T02:47:04.786Z,12.47
2018-08-04T02:49:36.230Z,12.70
2018-08-04T02:52:05.801Z,13.73
2018-08-04T02:54:38.748Z,14.20
2018-08-04T02:57:09.875Z,13.20
2018-08-04T02:59:42.653Z,13.53
2018-08-04T03:02:13.873Z,15.10
2018-08-04T03:04:45.503Z,14.33
2018-08-04T03:07:15.472Z,13.13
2018-08-04T03:09:46.541Z,13.83
2018-08-04T03:12:17.400Z,13.10
2018-08-04T03:14:48.913Z,14.50
2018-08-04T03:17:18.678Z,14.17
2018-08-04T03:19:48.355Z,13.17
2018-08-04T03:22:18.234Z,13.47
2018-08-04T03:24:47.986Z,13.17
2018-08-04T03:27:17.974Z,12.77
2018-08-04T03:29:47.900Z,12.70
2018-08-04T03:32:17.580Z,14.03
2018-08-04T03:34:48.179Z,13.07
2018-08-04T03:37:18.783Z,13.13
2018-08-04T03:39:51.878Z,14.80
2018-08-04T03:42:25.163Z,14.80
2018-08-04T03:44:54.732Z,15.13
2018-08-04T03:47:25.632Z,15.87
2018-08-04T03:49:55.904Z,15.43
2018-08-04T03:52:30.362Z,15.00
2018-08-04T03:55:00.823Z,15.93
2018-08-04T03:57:31.413Z,15.17
2018-08-04T04:00:07.575Z,16.47
2018-08-04T04:02:38.997Z,16.40
2018-08-04T04:05:09.050Z,15.30
2018-08-04T04:07:42.484Z,16.10
2018-08-04T04:10:14.368Z,14.20
2018-08-04T04:12:44.930Z,14.77
2018-08-04T04:15:16.981Z,14.37
2018-08-04T04:17:47.810Z,16.30
2018-08-04T04:20:19.976Z,17.17
2018-08-04T04:22:49.992Z,16.30
2018-08-04T04:25:19.300Z,16.27
2018-08-04T04:27:49.313Z,17.73
2018-08-04T04:30:18.640Z,15.57
2018-08-04T04:32:49.828Z,16.87
2018-08-04T04:35:20.152Z,16.70
2018-08-04T04:37:51.285Z,16.47
2018-08-04T04:40:23.702Z,18.40
2018-08-04T04:42:54.093Z,17.40
2018-08-04T04:45:25.106Z,18.27
2018-08-04T04:47:56.603Z,17.67
2018-08-04T04:50:27.429Z,18.53
2018-08-04T04:52:58.633Z,19.23
2018-08-04T04:55:31.164Z,17.67
2018-08-04T04:58:02.253Z,18.83
2018-08-04T05:00:32.700Z,20.57
2018-08-04T05:03:04.486Z,18.27
2018-08-04T05:05:35.392Z,18.60
2018-08-04T05:08:07.850Z,17.60
2018-08-04T05:10:38.684Z,19.17
2018-08-04T05:13:10.088Z,18.93
2018-08-04T05:15:42.771Z,18.80
2018-08-04T05:18:14.236Z,18.30
2018-08-04T05:20:46.607Z,17.77
2018-08-04T05:23:17.991Z,19.73
2018-08-04T05:25:48.724Z,19.70
2018-08-04T05:28:23.108Z,19.80
2018-08-04T05:30:56.483Z,19.73
2018-08-04T05:33:33.035Z,19.97
2018-08-04T05:36:04.805Z,19.60
2018-08-04T05:38:38.268Z,19.70
2018-08-04T05:41:13.560Z,18.93
2018-08-04T05:43:49.879Z,20.33
2018-08-04T05:46:25.611Z,21.60
2018-08-04T05:48:57.537Z,20.57
2018-08-04T05:51:29.741Z,20.17
2018-08-04T05:53:59.624Z,20.73
2018-08-04T05:56:30.387Z,20.93
2018-08-04T05:59:00.904Z,20.07
2018-08-04T06:01:31.702Z,19.97
2018-08-04T06:04:03.756Z,21.57
2018-08-04T06:06:37.472Z,22.07
2018-08-04T06:09:11.079Z,20.33
2018-08-04T06:11:47.650Z,20.57
2018-08-04T06:14:27.328Z,20.33
2018-08-04T06:17:01.724Z,20.97
2018-08-04T06:19:54.681Z,20.07
2018-08-04T06:22:24.865Z,21.73
2018-08-04T06:24:55.931Z,20.30
2018-08-04T06:27:25.861Z,19.87
2018-08-04T06:29:55.909Z,21.53
2018-08-04T06:32:25.740Z,22.37
2018-08-04T06:35:00.487Z,22.33
2018-08-04T06:37:34.094Z,21.77
2018-08-04T06:40:09.532Z,21.53
2018-08-04T06:42:43.357Z,22.27
2018-08-04T06:45:19.574Z,20.70
2018-08-04T06:47:54.268Z,21.87
2018-08-04T06:50:28.914Z,22.07
2018-08-04T06:53:01.806Z,21.67
2018-08-04T06:55:38.438Z,21.70
2018-08-04T06:58:13.636Z,22.03
2018-08-04T07:00:45.410Z,21.20
2018-08-04T07:03:20.196Z,20.53
2018-08-04T07:06:40.298Z,19.97
2018-08-04T07:09:23.608Z,21.40
2018-08-04T07:12:00.594Z,24.13
2018-08-04T07:14:33.908Z,20.63
2018-08-04T07:17:10.229Z,18.47
2018-08-04T07:19:40.276Z,20.30
2018-08-04T07:22:11.633Z,19.47
2018-08-04T07:24:41.736Z,21.17
2018-08-04T07:27:12.117Z,20.77
2018-08-04T07:29:56.681Z,20.33
2018-08-04T07:35:59.680Z,20.03
2018-08-04T07:38:29.814Z,21.10
2018-08-04T07:41:00.218Z,20.40
2018-08-04T07:43:30.447Z,20.33
2018-08-04T07:46:08.819Z,20.17
2018-08-04T07:48:48.916Z,19.27
2018-08-04T07:56:56.495Z,19.67
2018-08-04T07:59:26.524Z,17.97
2018-08-04T08:01:57.338Z,20.73
2018-08-04T08:04:29.888Z,18.23
2018-08-04T08:07:00.414Z,20.50
2018-08-04T08:09:33.215Z,18.13
2018-08-04T08:12:10.405Z,19.47
2018-08-04T08:14:42.484Z,19.10
2018-08-04T08:17:17.719Z,18.67
2018-08-04T08:19:47.687Z,18.77
2018-08-04T08:22:19.792Z,18.80
2018-08-04T08:25:01.897Z,19.03
2018-08-04T08:27:42.365Z,18.33
2018-08-04T08:30:14.663Z,16.00
2018-08-04T08:32:47.185Z,18.63
2018-08-04T08:35:23.897Z,17.20
2018-08-04T08:38:03.052Z,16.80
2018-08-04T08:40:35.297Z,15.17
2018-08-04T08:43:13.507Z,15.63
2018-08-04T08:45:44.847Z,14.90
2018-08-04T08:48:14.890Z,13.87
2018-08-04T08:50:45.392Z,14.97
2018-08-04T08:53:16.847Z,14.83
2018-08-04T08:55:49.689Z,16.50
2018-08-04T08:58:20.793Z,14.83
2018-08-04T09:00:54.088Z,15.67
2018-08-04T09:03:26.960Z,14.03
2018-08-04T09:05:57.015Z,14.87
2018-08-04T09:08:34.458Z,13.07
2018-08-04T09:11:11.663Z,14.40
2018-08-04T09:13:46.083Z,13.80
2018-08-04T09:16:17.176Z,13.67
2018-08-04T09:18:48.662Z,13.47
2018-08-04T09:21:18.617Z,13.77
2018-08-04T09:23:48.129Z,12.77
2018-08-04T09:26:17.594Z,13.50
2018-08-04T09:28:48.758Z,14.10
2018-08-04T09:31:47.574Z,12.97
2018-08-04T09:34:32.359Z,13.37
2018-08-04T09:37:11.967Z,13.47
2018-08-04T09:40:25.621Z,14.10
2018-08-04T09:43:07.564Z,12.43
2018-08-04T09:46:02.445Z,12.67
2018-08-04T09:48:55.413Z,12.83
2018-08-04T09:51:47.734Z,13.70
2018-08-04T09:54:33.892Z,12.90
2018-08-04T09:57:14.737Z,13.00
2018-08-04T10:00:09.015Z,13.20
2018-08-04T10:03:04.512Z,12.37
2018-08-04T10:05:43.718Z,12.17
2018-08-04T10:11:32.138Z,12.67
2018-08-04T10:14:08.342Z,14.60
2018-08-04T10:16:38.204Z,13.23
2018-08-04T10:19:08.336Z,13.10
2018-08-04T10:21:59.427Z,13.60
2018-08-04T10:24:31.156Z,14.20
2018-08-04T10:27:01.968Z,13.13
2018-08-04T10:29:31.871Z,13.70
2018-08-04T10:35:01.634Z,14.23
2018-08-04T10:37:41.683Z,13.20
2018-08-04T10:43:12.259Z,13.57
2018-08-04T10:45:54.381Z,12.57
2018-08-04T10:48:28.915Z,12.40
2018-08-04T10:51:04.668Z,13.70
2018-08-04T10:53:36.627Z,12.33
2018-08-04T10:56:06.854Z,13.30
2018-08-04T10:58:44.786Z,13.50
2018-08-04T11:01:21.004Z,12.63
2018-08-04T11:03:57.726Z,13.23
2018-08-04T11:06:41.440Z,12.50
2018-08-04T11:12:33.898Z,12.83
2018-08-04T11:15:09.586Z,12.17
2018-08-04T11:17:40.985Z,12.53
2018-08-04T11:20:15.744Z,11.40
2018-08-04T11:22:49.190Z,13.10
2018-08-04T11:25:23.418Z,13.40
2018-08-04T11:27:59.996Z,12.27
2018-08-04T11:33:18.965Z,12.10
2018-08-04T11:36:04.449Z,11.50
2018-08-04T11:38:38.066Z,11.40
2018-08-04T11:41:25.182Z,12.10
2018-08-04T11:43:56.938Z,12.23
2018-08-04T11:46:30.941Z,12.50
2018-08-04T11:49:05.876Z,12.37
2018-08-04T11:51:41.163Z,11.80
2018-08-04T11:54:21.810Z,11.67
2018-08-04T11:56:54.884Z,13.20
2018-08-04T11:59:54.913Z,13.47
2018-08-04T12:02:37.259Z,13.30
2018-08-04T12:05:15.912Z,13.30
2018-08-04T12:08:25.732Z,14.17
2018-08-04T12:10:57.756Z,12.40
2018-08-04T12:13:28.873Z,13.80
2018-08-04T12:18:55.629Z,13.03
2018-08-04T12:21:48.101Z,12.20
2018-08-04T12:24:33.464Z,12.30
2018-08-04T12:27:50.871Z,12.00
2018-08-04T12:30:41.563Z,12.83
2018-08-04T12:33:32.239Z,12.60
2018-08-04T12:36:22.587Z,10.67
2018-08-04T12:45:26.634Z,10.40
2018-08-04T12:48:10.848Z,10.40
2018-08-04T12:54:15.412Z,10.10
2018-08-04T12:58:05.689Z,10.13
2018-08-04T13:00:52.940Z,8.93
2018-08-04T13:03:29.406Z,10.50
2018-08-04T13:06:05.149Z,10.77
2018-08-04T13:08:42.632Z,9.07
2018-08-04T13:11:15.556Z,9.70
2018-08-04T13:13:48.154Z,9.20
2018-08-04T13:16:18.918Z,9.23
2018-08-04T13:19:04.325Z,10.23
2018-08-04T13:21:37.607Z,9.97
2018-08-04T13:24:11.870Z,9.90
2018-08-04T13:26:48.557Z,8.73
2018-08-04T13:30:01.080Z,9.20
2018-08-04T13:32:44.343Z,9.50
2018-08-04T13:35:44.728Z,10.00
2018-08-04T13:38:32.498Z,12.60
2018-08-04T13:41:06.946Z,9.90
2018-08-04T13:43:39.353Z,10.47
2018-08-04T13:46:12.288Z,10.73
2018-08-04T13:48:44.594Z,10.17
2018-08-04T13:51:20.516Z,10.23
2018-08-04T13:53:51.029Z,10.73
2018-08-04T13:56:34.257Z,11.67
2018-08-04T13:59:15.568Z,10.50
2018-08-04T14:02:00.060Z,10.90
2018-08-04T14:04:41.032Z,11.67
2018-08-04T14:07:24.358Z,10.73
2018-08-04T14:10:02.160Z,11.53
2018-08-04T14:12:39.688Z,11.47
2018-08-04T14:15:24.142Z,11.17
2018-08-04T14:18:00.194Z,10.77
2018-08-04T14:20:31.719Z,11.40
2018-08-04T14:23:03.845Z,10.40
2018-08-04T14:25:36.709Z,10.90
2018-08-04T14:28:08.579Z,11.07
2018-08-04T14:30:48.308Z,12.87
2018-08-04T14:33:31.407Z,11.00
2018-08-04T14:36:12.941Z,11.37
2018-08-04T14:38:50.273Z,11.43
2018-08-04T14:41:33.138Z,10.27
2018-08-04T14:44:03.827Z,11.43
2018-08-04T14:46:33.611Z,10.63
2018-08-04T14:49:03.228Z,10.77
2018-08-04T14:51:36.265Z,11.80
2018-08-04T14:54:10.169Z,11.40
2018-08-04T14:56:41.449Z,12.00
2018-08-04T15:05:19.178Z,10.57
2018-08-04T15:07:50.345Z,10.60
2018-08-04T15:10:23.017Z,10.10
2018-08-04T15:12:57.111Z,9.90
2018-08-04T15:15:28.487Z,9.77
2018-08-04T15:17:59.467Z,10.50
2018-08-04T15:20:30.097Z,10.40
2018-08-04T15:23:01.070Z,10.47
2018-08-04T15:25:31.959Z,9.70
2018-08-04T15:28:18.097Z,9.53
2018-08-04T15:30:54.032Z,10.00
2018-08-04T15:33:34.886Z,10.00
2018-08-04T15:36:09.924Z,10.53
2018-08-04T15:38:45.114Z,9.70
2018-08-04T15:41:20.519Z,8.93
2018-08-04T15:43:56.128Z,8.50
2018-08-04T15:46:34.025Z,8.97
2018-08-04T15:49:05.872Z,9.03
2018-08-04T15:51:40.393Z,11.07
2018-08-04T15:54:15.297Z,12.87
2018-08-04T15:56:45.709Z,15.97
2018-08-04T15:59:16.557Z,15.30
2018-08-04T16:01:47.489Z,12.90
2018-08-04T16:04:18.466Z,14.63
2018-08-04T16:06:48.943Z,13.70
2018-08-04T16:09:23.680Z,14.33
2018-08-04T16:11:55.893Z,14.60
2018-08-04T16:14:27.550Z,13.70
2018-08-04T16:17:04.378Z,13.37
2018-08-04T16:19:34.535Z,14.47
2018-08-04T16:22:05.572Z,11.80
2018-08-04T16:24:35.379Z,13.53
2018-08-04T16:27:06.309Z,11.53
2018-08-04T16:29:44.805Z,12.60
2018-08-04T16:32:15.265Z,10.87
2018-08-04T16:34:53.612Z,9.00
2018-08-04T16:37:27.666Z,8.77
2018-08-04T16:40:08.596Z,9.50
2018-08-04T16:42:55.054Z,10.33
2018-08-04T16:45:26.010Z,9.37
2018-08-04T16:47:58.225Z,10.23
2018-08-04T16:50:39.304Z,9.47
2018-08-04T16:53:13.057Z,9.40
2018-08-04T16:55:55.813Z,10.37
2018-08-04T16:58:27.850Z,10.87
2018-08-04T17:01:03.683Z,9.87
2018-08-04T17:03:35.110Z,10.50
2018-08-04T17:06:12.971Z,11.10
2018-08-04T17:09:05.266Z,13.40
2018-08-04T17:11:58.859Z,11.73
2018-08-04T17:14:42.847Z,12.10
2018-08-04T17:17:34.153Z,10.90
2018-08-04T17:20:21.004Z,12.20
2018-08-04T17:22:58.347Z,11.40
2018-08-04T17:25:48.450Z,13.40
2018-08-04T17:28:39.438Z,11.47
2018-08-04T17:31:14.335Z,11.33
2018-08-04T17:33:49.429Z,12.10
2018-08-04T17:36:26.702Z,12.33
2018-08-04T17:39:04.618Z,11.77
2018-08-04T17:41:39.154Z,13.03
2018-08-04T17:44:14.967Z,12.47
2018-08-04T17:46:59.487Z,12.10
2018-08-04T17:49:32.955Z,12.30
2018-08-04T17:52:12.090Z,12.63
2018-08-04T17:57:48.418Z,12.57
2018-08-04T18:00:24.049Z,12.60
2018-08-04T18:02:56.560Z,15.33
2018-08-04T18:05:32.227Z,13.97
2018-08-04T18:08:05.204Z,14.70
2018-08-04T18:10:36.816Z,14.80
2018-08-04T18:13:13.561Z,15.00
2018-08-04T18:15:52.221Z,14.70
2018-08-04T18:21:05.181Z,14.33
2018-08-04T18:23:37.131Z,17.77
2018-08-04T18:26:08.746Z,19.00
2018-08-04T18:28:40.412Z,16.10
2018-08-04T18:31:17.736Z,15.50
2018-08-04T18:33:57.742Z,17.60
2018-08-04T18:36:29.661Z,16.80
2018-08-04T18:39:07.938Z,16.80
2018-08-04T18:41:37.857Z,16.10
2018-08-04T18:44:10.118Z,15.03
2018-08-04T18:46:41.169Z,16.73
2018-08-04T18:49:12.184Z,15.90
2018-08-04T19:01:33.226Z,14.20
2018-08-04T19:04:28.356Z,15.57
2018-08-04T19:07:09.925Z,15.00
2018-08-04T19:09:41.052Z,15.70
2018-08-04T19:12:10.827Z,15.73
2018-08-04T19:14:40.181Z,17.20
2018-08-04T19:17:10.529Z,18.93
2018-08-04T19:23:17.782Z,16.03
2018-08-04T19:26:11.636Z,16.80
2018-08-04T19:28:42.130Z,17.07
2018-08-04T19:31:11.292Z,17.80
2018-08-04T19:33:40.585Z,17.07
2018-08-04T19:36:10.143Z,17.63
2018-08-04T19:38:39.392Z,17.87
2018-08-04T19:41:08.682Z,18.90
2018-08-04T19:43:37.937Z,17.40
2018-08-04T19:49:07.274Z,17.40
2018-08-04T19:51:36.985Z,16.33
2018-08-04T19:54:08.801Z,18.50
2018-08-04T19:56:46.510Z,18.33
2018-08-04T19:59:39.412Z,18.60
2018-08-04T20:02:13.626Z,18.63
2018-08-04T20:04:52.972Z,19.27
2018-08-04T20:07:31.303Z,18.10
2018-08-04T20:10:22.516Z,17.90
2018-08-04T20:13:01.606Z,17.43
2018-08-04T20:15:51.977Z,17.97
2018-08-04T20:19:27.236Z,20.27
2018-08-04T20:22:41.483Z,18.37
2018-08-04T20:31:32.507Z,20.00
2018-08-04T20:34:22.027Z,19.10
2018-08-04T20:36:55.302Z,20.23
2018-08-04T20:39:24.612Z,19.43
2018-08-04T20:41:53.813Z,18.27
2018-08-04T20:44:23.052Z,20.40
2018-08-04T20:46:53.483Z,19.97
2018-08-04T20:49:22.967Z,18.83
2018-08-04T20:51:52.439Z,19.87
2018-08-04T20:54:21.703Z,19.10
2018-08-04T20:56:51.013Z,19.30
2018-08-04T20:59:20.250Z,20.30
2018-08-04T21:01:57.981Z,20.03
2018-08-04T21:04:28.462Z,20.23
2018-08-04T21:06:58.202Z,21.63
2018-08-04T21:09:29.571Z,21.30
2018-08-04T21:11:58.836Z,21.30
2018-08-04T21:14:29.604Z,21.93
2018-08-04T21:16:59.780Z,30.77
2018-08-04T21:19:29.128Z,20.70
2018-08-04T21:21:58.886Z,21.70
2018-08-04T21:24:28.180Z,20.33
2018-08-04T21:26:57.580Z,22.00
2018-08-04T21:29:26.781Z,20.90
2018-08-04T21:31:56.082Z,19.83
2018-08-04T21:34:25.381Z,20.80
2018-08-04T21:36:54.844Z,21.03
2018-08-04T21:39:24.230Z,19.40
2018-08-04T21:41:53.543Z,19.87
2018-08-04T21:44:22.924Z,20.30
2018-08-04T21:46:52.280Z,19.83
2018-08-04T21:49:21.567Z,21.37
2018-08-04T21:51:51.273Z,21.60
2018-08-04T21:54:21.100Z,21.30
2018-08-04T21:56:51.157Z,22.33
2018-08-04T21:59:22.632Z,21.00
2018-08-04T22:01:53.720Z,20.60
2018-08-04T22:04:23.310Z,18.53
2018-08-04T22:08:03.512Z,19.10
2018-08-04T22:10:32.801Z,20.13
2018-08-04T22:13:02.137Z,19.53
2018-08-04T22:15:31.682Z,19.30
2018-08-04T22:18:01.010Z,18.27
2018-08-04T22:20:30.800Z,19.10
2018-08-04T22:23:00.005Z,19.77
2018-08-04T22:25:30.838Z,18.67
2018-08-04T22:28:00.189Z,19.20
2018-08-04T22:30:29.693Z,19.97
2018-08-04T22:32:58.952Z,19.50
2018-08-04T22:35:28.223Z,17.57
2018-08-04T22:37:58.016Z,19.17
2018-08-04T22:40:27.218Z,19.47
2018-08-04T22:42:58.154Z,19.87
2018-08-04T22:45:33.649Z,19.00
2018-08-04T22:48:02.949Z,19.60
2018-08-04T22:50:34.228Z,18.87
2018-08-04T22:53:03.517Z,19.73
2018-08-04T22:55:32.738Z,18.90
2018-08-04T22:58:01.965Z,19.67
2018-08-04T23:00:32.053Z,20.57
2018-08-04T23:03:01.285Z,19.57
2018-08-04T23:05:30.553Z,19.27
2018-08-04T23:07:59.956Z,20.20
2018-08-04T23:10:29.900Z,19.43
2018-08-04T23:12:59.265Z,18.83
2018-08-04T23:15:29.068Z,19.57
2018-08-04T23:17:58.521Z,20.33
2018-08-04T23:20:28.621Z,22.10
2018-08-04T23:22:58.183Z,21.13
2018-08-04T23:25:27.613Z,19.73
2018-08-04T23:27:56.968Z,20.63
2018-08-04T23:30:26.578Z,21.07
2018-08-04T23:32:55.946Z,19.90
2018-08-04T23:35:26.698Z,21.30
2018-08-04T23:37:55.884Z,21.43
2018-08-04T23:40:25.122Z,21.47
2018-08-04T23:42:54.329Z,22.70
2018-08-04T23:45:23.868Z,22.30
2018-08-04T23:47:53.207Z,22.73
2018-08-04T23:50:22.390Z,21.80
2018-08-04T23:52:51.583Z,23.90
2018-08-04T23:55:20.813Z,20.97
2018-08-04T23:57:50.062Z,22.40
